Time;durP1;ratioP1;P1;durP2;ratioP2;P2;SDS_P1;SDS_P2;PMS_P1;PMS_P2;Temp;Humidity;BMP_temperature;BMP_pressure;BME280_temperature;BME280_humidity;BME280_pressure;Samples;Min_cycle;Max_cycle;Signal;HPM_P1;HPM_P2
2022/08/14 00:00:13;;;;;;;0.00;0.00;;;21.70;95.20;;;;;;4973885;28;20052;-84
2022/08/14 00:02:40;;;;;;;0.00;0.00;;;;;;;;;;4960009;28;20058;-83
2022/08/14 00:05:11;;;;;;;0.00;0.00;;;21.40;95.70;;;;;;4956057;29;20074;-84
2022/08/14 00:07:38;;;;;;;0.00;0.00;;;21.40;96.10;;;;;;4957516;29;20043;-83
2022/08/14 00:10:10;;;;;;;0.00;0.00;;;22.70;96.60;;;;;;4952116;29;20046;-83
2022/08/14 00:12:57;;;;;;;0.00;0.00;;;21.40;96.10;;;;;;4958457;28;20034;-84
2022/08/14 00:15:29;;;;;;;0.00;0.00;;;21.30;96.20;;;;;;4955702;28;20054;-83
2022/08/14 00:18:11;;;;;;;0.00;0.00;;;21.30;96.20;;;;;;4972534;28;20031;-83
2022/08/14 00:20:56;;;;;;;0.00;0.00;;;22.90;96.60;;;;;;4960265;29;20039;-84
2022/08/14 00:23:25;;;;;;;0.00;0.00;;;;;;;;;;4958345;28;20034;-84
2022/08/14 00:25:54;;;;;;;0.00;0.00;;;21.30;95.90;;;;;;4956716;29;20052;-83
2022/08/14 00:28:33;;;;;;;0.00;0.00;;;21.30;96.50;;;;;;4957599;29;20040;-84
2022/08/14 00:31:04;;;;;;;0.00;0.00;;;21.20;96.70;;;;;;4954022;29;20044;-83
2022/08/14 00:33:30;;;;;;;0.00;0.00;;;21.20;96.50;;;;;;4951810;29;20035;-84
2022/08/14 00:36:17;;;;;;;0.00;0.00;;;21.20;96.50;;;;;;4955781;28;20107;-84
2022/08/14 00:39:05;;;;;;;0.00;0.00;;;21.10;96.60;;;;;;4959463;29;20074;-84
2022/08/14 00:41:35;;;;;;;0.00;0.00;;;21.20;96.60;;;;;;4956955;29;20042;-83
2022/08/14 00:44:04;;;;;;;0.00;0.00;;;;;;;;;;4956373;28;20059;-84
2022/08/14 00:46:33;;;;;;;0.00;0.00;;;21.10;96.40;;;;;;4970365;28;20035;-83
2022/08/14 00:49:01;;;;;;;0.08;0.08;;;21.20;96.80;;;;;;4955177;29;20043;-82
2022/08/14 00:51:31;;;;;;;0.00;0.00;;;21.20;96.60;;;;;;4957372;28;20058;-84
2022/08/14 00:54:05;;;;;;;0.00;0.00;;;21.20;96.80;;;;;;4957518;29;20028;-84
2022/08/14 00:56:50;;;;;;;0.00;0.00;;;21.40;97.30;;;;;;4956321;29;20035;-84
2022/08/14 00:59:22;;;;;;;0.00;0.00;;;21.80;97.60;;;;;;4958310;28;20035;-83
2022/08/14 01:01:54;;;;;;;0.00;0.00;;;21.10;97.50;;;;;;4955493;29;20047;-83
2022/08/14 01:04:22;;;;;;;0.00;0.00;;;21.00;97.60;;;;;;4970319;28;20028;-84
2022/08/14 01:07:09;;;;;;;0.00;0.00;;;21.50;97.80;;;;;;4970705;28;20062;-84
2022/08/14 01:09:39;;;;;;;0.00;0.00;;;22.50;98.40;;;;;;4954550;28;20055;-83
2022/08/14 01:12:09;;;;;;;0.00;0.00;;;20.80;98.30;;;;;;4959042;28;20048;-83
2022/08/14 01:14:36;;;;;;;0.00;0.00;;;20.70;98.60;;;;;;4954383;29;20047;-84
2022/08/14 01:17:07;;;;;;;0.00;0.00;;;20.60;98.90;;;;;;4956931;28;20032;-84
2022/08/14 01:22:23;;;;;;;0.00;0.00;;;20.60;99.20;;;;;;4949652;29;20040;-86
2022/08/14 01:24:53;;;;;;;0.00;0.00;;;20.50;99.30;;;;;;4953288;28;20022;-83
2022/08/14 01:27:21;;;;;;;0.00;0.00;;;20.50;99.30;;;;;;4958468;28;20024;-83
2022/08/14 01:29:53;;;;;;;0.00;0.00;;;20.50;99.50;;;;;;4957094;29;20087;-84
2022/08/14 01:32:31;;;;;;;0.00;0.00;;;20.40;99.60;;;;;;4955923;28;20059;-83
2022/08/14 01:35:08;;;;;;;0.00;0.00;;;20.40;99.60;;;;;;4957297;28;20040;-85
2022/08/14 01:37:56;;;;;;;0.00;0.00;;;20.40;99.70;;;;;;4957009;28;20054;-84
2022/08/14 01:40:24;;;;;;;0.00;0.00;;;20.40;99.90;;;;;;4957214;28;20355;-84
2022/08/14 01:43:13;;;;;;;0.00;0.00;;;22.30;99.90;;;;;;4956940;29;20028;-83
2022/08/14 01:45:40;;;;;;;0.00;0.00;;;22.70;99.90;;;;;;4972531;28;20043;-83
2022/08/14 01:48:08;;;;;;;0.00;0.00;;;20.20;99.90;;;;;;4956404;28;20038;-83
2022/08/14 01:50:40;;;;;;;0.00;0.00;;;20.30;99.90;;;;;;4971379;28;20043;-85
2022/08/14 01:53:09;;;;;;;0.00;0.00;;;20.30;99.90;;;;;;4957304;29;20036;-84
2022/08/14 01:55:38;;;;;;;0.00;0.00;;;20.30;99.90;;;;;;4947416;29;20123;-83
2022/08/14 01:58:09;;;;;;;0.00;0.00;;;20.10;99.90;;;;;;4956380;28;20602;-83
2022/08/14 02:00:52;;;;;;;0.00;0.00;;;20.30;99.90;;;;;;4971107;28;20027;-84
2022/08/14 02:03:22;;;;;;;0.00;0.00;;;20.30;99.90;;;;;;4955518;29;20039;-84
2022/08/14 02:05:49;;;;;;;0.00;0.00;;;22.00;99.90;;;;;;4968501;28;20056;-83
2022/08/14 02:08:17;;;;;;;0.00;0.00;;;20.40;99.90;;;;;;4956084;28;20056;-84
2022/08/14 02:13:49;;;;;;;0.00;0.00;;;20.40;99.90;;;;;;4957300;28;20059;-84
2022/08/14 02:16:19;;;;;;;0.00;0.00;;;20.40;99.90;;;;;;4970576;28;20027;-83
2022/08/14 02:18:48;;;;;;;0.00;0.00;;;20.50;99.90;;;;;;4954973;29;20051;-84
2022/08/14 02:21:17;;;;;;;0.00;0.00;;;20.40;99.90;;;;;;4955723;29;20031;-85
2022/08/14 02:23:47;;;;;;;;;;;20.40;99.90;;;;;;4953755;28;20045;-83
2022/08/14 02:26:25;;;;;;;0.00;0.00;;;20.40;99.90;;;;;;4951623;28;19918;-85
2022/08/14 02:28:59;;;;;;;0.00;0.00;;;20.30;99.90;;;;;;4955886;29;20024;-85
2022/08/14 02:31:31;;;;;;;0.00;0.00;;;20.50;99.90;;;;;;4955135;28;20040;-85
2022/08/14 02:34:12;;;;;;;0.00;0.00;;;20.30;99.90;;;;;;4968695;28;20034;-84
2022/08/14 02:36:57;;;;;;;0.00;0.00;;;21.60;99.90;;;;;;4956500;28;20055;-85
2022/08/14 02:39:35;;;;;;;0.00;0.00;;;20.30;99.90;;;;;;4955180;29;20043;-84
2022/08/14 02:42:04;;;;;;;0.00;0.00;;;20.30;99.90;;;;;;4956115;28;20031;-83
2022/08/14 02:44:33;;;;;;;0.00;0.00;;;20.20;99.90;;;;;;4956859;28;20047;-85
2022/08/14 02:47:07;;;;;;;0.00;0.00;;;20.50;99.90;;;;;;4956603;28;20047;-84
2022/08/14 02:49:44;;;;;;;0.00;0.00;;;20.30;99.90;;;;;;4951801;29;20071;-85
2022/08/14 02:52:16;;;;;;;0.00;0.00;;;21.00;99.90;;;;;;4954341;28;20044;-84
2022/08/14 02:55:05;;;;;;;0.00;0.00;;;20.10;99.90;;;;;;4953689;29;20091;-85
2022/08/14 02:57:33;;;;;;;0.00;0.00;;;20.10;99.90;;;;;;4957105;29;20084;-85
2022/08/14 03:00:08;;;;;;;0.00;0.00;;;20.10;99.90;;;;;;4955859;28;20036;-84
2022/08/14 03:02:36;;;;;;;0.00;0.00;;;20.10;99.90;;;;;;4956574;28;20043;-84
2022/08/14 03:05:23;;;;;;;0.00;0.00;;;20.20;99.90;;;;;;4948153;29;20092;-83
2022/08/14 03:07:49;;;;;;;0.00;0.00;;;21.90;99.90;;;;;;4958015;28;20071;-84
2022/08/14 03:10:20;;;;;;;0.00;0.00;;;20.10;99.90;;;;;;4954334;28;20054;-84
2022/08/14 03:12:52;;;;;;;0.00;0.00;;;20.10;99.90;;;;;;4955587;28;20020;-83
2022/08/14 03:15:19;;;;;;;0.00;0.00;;;20.40;99.90;;;;;;4951879;28;20035;-83
2022/08/14 03:17:50;;;;;;;0.00;0.00;;;20.10;99.90;;;;;;4954703;29;20032;-84
2022/08/14 03:20:26;;;;;;;0.00;0.00;;;20.10;99.90;;;;;;4968467;28;20039;-84
2022/08/14 03:22:54;;;;;;;0.00;0.00;;;20.20;99.90;;;;;;4976326;28;21282;-84
2022/08/14 03:25:23;;;;;;;0.00;0.00;;;20.20;99.90;;;;;;4954751;28;20039;-84
2022/08/14 03:27:50;;;;;;;0.00;0.00;;;20.70;99.90;;;;;;4976388;28;20044;-83
2022/08/14 03:30:30;;;;;;;0.00;0.00;;;20.20;99.90;;;;;;4956704;29;20046;-83
2022/08/14 03:33:08;;;;;;;0.00;0.00;;;20.10;99.90;;;;;;4957270;29;20032;-85
2022/08/14 03:35:37;;;;;;;0.00;0.00;;;20.10;99.90;;;;;;4972374;28;20034;-82
2022/08/14 03:38:24;;;;;;;0.00;0.00;;;20.10;99.90;;;;;;4970991;28;20031;-84
2022/08/14 03:41:15;;;;;;;0.00;0.00;;;20.20;99.90;;;;;;4957857;28;20095;-84
2022/08/14 03:43:44;;;;;;;0.00;0.00;;;20.10;99.90;;;;;;4974741;28;20019;-83
2022/08/14 03:46:12;;;;;;;0.00;0.00;;;20.10;99.90;;;;;;4973312;28;20047;-84
2022/08/14 03:49:03;;;;;;;0.00;0.00;;;20.10;99.90;;;;;;4955285;28;20087;-85
2022/08/14 03:51:31;;;;;;;0.00;0.00;;;20.10;99.90;;;;;;4974453;28;20059;-84
2022/08/14 03:54:00;;;;;;;0.00;0.00;;;22.30;99.90;;;;;;4958848;29;20062;-83
2022/08/14 03:56:29;;;;;;;0.00;0.00;;;20.10;99.90;;;;;;4973633;28;20066;-83
2022/08/14 03:59:04;;;;;;;0.00;0.00;;;20.10;99.90;;;;;;4959073;28;20044;-84
2022/08/14 04:01:38;;;;;;;0.00;0.00;;;20.10;99.90;;;;;;4957786;28;20035;-85
2022/08/14 04:04:19;;;;;;;0.00;0.00;;;21.80;99.90;;;;;;4954303;28;20043;-85
2022/08/14 04:06:50;;;;;;;0.00;0.00;;;20.10;99.90;;;;;;4958638;29;20052;-84
2022/08/14 04:09:18;;;;;;;;;;;20.00;99.90;;;;;;4957068;28;20024;-83
2022/08/14 04:11:47;;;;;;;0.00;0.00;;;20.00;99.90;;;;;;4959240;28;19933;-84
2022/08/14 04:14:16;;;;;;;0.00;0.00;;;20.00;99.90;;;;;;4958430;28;20034;-84
2022/08/14 04:16:46;;;;;;;0.00;0.00;;;19.90;99.90;;;;;;4954943;29;20055;-85
2022/08/14 04:19:18;;;;;;;0.00;0.00;;;21.30;99.90;;;;;;4959904;28;20028;-84
2022/08/14 04:21:45;;;;;;;0.00;0.00;;;19.90;99.90;;;;;;4959544;28;20036;-84
2022/08/14 04:24:30;;;;;;;0.00;0.00;;;20.00;99.90;;;;;;4953195;28;20052;-83
2022/08/14 04:27:07;;;;;;;0.00;0.00;;;20.00;99.90;;;;;;4959065;29;20032;-84
2022/08/14 04:29:37;;;;;;;0.00;0.00;;;20.00;99.90;;;;;;4958703;29;20038;-85
2022/08/14 04:32:06;;;;;;;0.00;0.00;;;20.00;99.90;;;;;;4955862;28;20031;-84
2022/08/14 04:34:54;;;;;;;0.00;0.00;;;;;;;;;;4969577;28;20099;-85
2022/08/14 04:45:44;;;;;;;0.00;0.00;;;21.30;99.90;;;;;;4955575;29;20028;-83
2022/08/14 04:48:19;;;;;;;0.00;0.00;;;19.80;99.90;;;;;;4957152;29;20054;-83
2022/08/14 04:51:08;;;;;;;;;;;19.80;99.90;;;;;;4957565;28;20099;-83
2022/08/14 04:53:37;;;;;;;0.00;0.00;;;19.80;99.90;;;;;;4955501;29;19910;-84
2022/08/14 04:56:10;;;;;;;0.00;0.00;;;19.80;99.90;;;;;;4958099;28;20342;-84
2022/08/14 04:59:03;;;;;;;0.00;0.00;;;20.30;99.90;;;;;;4972069;28;20150;-84
2022/08/14 05:01:40;;;;;;;0.00;0.00;;;19.80;99.90;;;;;;4971219;28;20051;-84
2022/08/14 05:04:11;;;;;;;0.00;0.00;;;19.80;99.90;;;;;;4964159;28;20046;-84
2022/08/14 05:06:42;;;;;;;0.00;0.00;;;19.80;99.90;;;;;;4957016;28;20047;-84
2022/08/14 05:09:09;;;;;;;0.00;0.00;;;19.80;99.90;;;;;;5016451;23;20059;-84
2022/08/14 05:11:40;;;;;;;0.00;0.00;;;19.80;99.90;;;;;;4978146;28;20078;-81
2022/08/14 05:14:09;;;;;;;0.00;0.00;;;19.80;99.90;;;;;;4974264;28;20071;-82
2022/08/14 05:16:57;;;;;;;0.00;0.00;;;19.80;99.90;;;;;;4978557;28;20082;-82
2022/08/14 05:19:28;;;;;;;0.00;0.00;;;19.80;99.90;;;;;;4988126;28;20027;-81
2022/08/14 05:21:58;;;;;;;0.00;0.00;;;19.90;99.90;;;;;;4993400;28;20046;-82
2022/08/14 05:24:44;;;;;;;0.00;0.00;;;20.00;99.90;;;;;;4974956;28;20051;-80
2022/08/14 05:27:14;;;;;;;0.00;0.00;;;20.00;99.90;;;;;;4989580;28;20023;-83
2022/08/14 05:29:45;;;;;;;0.00;0.00;;;20.00;99.90;;;;;;4973904;28;20454;-81
2022/08/14 05:32:13;;;;;;;0.00;0.00;;;22.70;99.90;;;;;;4988437;28;20074;-80
2022/08/14 05:34:40;;;;;;;0.00;0.00;;;20.20;99.90;;;;;;4992966;28;20047;-81
2022/08/14 05:37:11;;;;;;;0.00;0.00;;;20.10;99.90;;;;;;4975238;28;20042;-81
2022/08/14 05:39:41;;;;;;;;;;;20.20;99.90;;;;;;4974312;28;20059;-82
2022/08/14 05:42:08;;;;;;;0.00;0.00;;;20.20;99.90;;;;;;4971308;28;19945;-81
2022/08/14 05:44:48;;;;;;;0.00;0.00;;;20.20;99.90;;;;;;4972590;28;20039;-82
2022/08/14 05:47:19;;;;;;;0.00;0.00;;;20.30;99.90;;;;;;4994046;28;20408;-82
2022/08/14 05:49:47;;;;;;;0.00;0.00;;;20.30;99.90;;;;;;4971660;28;20024;-82
2022/08/14 05:52:14;;;;;;;0.00;0.00;;;20.30;99.90;;;;;;4973376;28;20062;-81
2022/08/14 05:54:43;;;;;;;;;;;20.40;99.90;;;;;;4987734;28;20054;-82
2022/08/14 05:57:10;;;;;;;0.00;0.00;;;20.50;99.90;;;;;;4975850;28;19918;-81
2022/08/14 05:59:37;;;;;;;0.00;0.00;;;20.50;99.90;;;;;;4974202;28;20055;-82
2022/08/14 06:02:08;;;;;;;0.00;0.00;;;20.40;99.90;;;;;;4969754;28;20055;-82
2022/08/14 06:04:37;;;;;;;0.00;0.00;;;20.50;99.90;;;;;;4989728;28;20062;-83
2022/08/14 06:07:04;;;;;;;0.00;0.00;;;20.50;99.90;;;;;;4991142;28;20051;-81
2022/08/14 06:09:32;;;;;;;0.00;0.00;;;20.60;99.90;;;;;;4990673;28;20027;-81
2022/08/14 06:12:07;;;;;;;0.00;0.00;;;22.80;99.90;;;;;;4987134;28;20058;-81
2022/08/14 06:14:34;;;;;;;0.00;0.00;;;20.70;99.90;;;;;;4992530;28;20038;-83
2022/08/14 06:17:02;;;;;;;0.00;0.00;;;20.80;99.90;;;;;;4988087;28;20054;-81
2022/08/14 06:19:30;;;;;;;0.00;0.00;;;21.00;99.90;;;;;;4990857;28;20579;-82
2022/08/14 06:21:57;;;;;;;0.00;0.00;;;20.90;99.90;;;;;;4973687;28;20055;-81
2022/08/14 06:24:25;;;;;;;0.00;0.00;;;21.00;99.90;;;;;;4973442;28;20042;-82
2022/08/14 06:26:52;;;;;;;0.00;0.00;;;22.10;99.90;;;;;;4975096;28;20031;-82
2022/08/14 06:29:22;;;;;;;0.00;0.00;;;21.20;99.90;;;;;;4968170;28;20067;-84
2022/08/14 06:31:51;;;;;;;0.00;0.00;;;21.20;99.90;;;;;;4975297;28;20071;-82
2022/08/14 06:34:26;;;;;;;0.00;0.00;;;21.40;99.90;;;;;;4988079;28;20054;-83
2022/08/14 06:37:17;;;;;;;0.00;0.00;;;22.10;99.90;;;;;;4985836;28;20116;-83
2022/08/14 06:39:44;;;;;;;0.00;0.00;;;21.50;99.90;;;;;;4992087;28;20027;-82
2022/08/14 06:42:12;;;;;;;0.00;0.00;;;23.50;99.90;;;;;;4991130;28;20031;-82
2022/08/14 06:45:00;;;;;;;0.00;0.00;;;21.50;99.90;;;;;;4975624;28;20047;-82
2022/08/14 06:47:28;;;;;;;0.00;0.00;;;21.60;99.90;;;;;;4990395;28;20027;-81
2022/08/14 06:49:55;;;;;;;0.00;0.00;;;21.60;99.90;;;;;;4974317;28;20049;-81
2022/08/14 06:52:25;;;;;;;0.00;0.00;;;21.60;99.90;;;;;;4975088;28;20039;-82
2022/08/14 06:54:56;;;;;;;0.00;0.00;;;22.90;99.90;;;;;;4977957;28;20027;-82
2022/08/14 06:57:23;;;;;;;0.00;0.00;;;22.40;99.90;;;;;;4994511;28;20179;-81
2022/08/14 06:59:50;;;;;;;0.00;0.00;;;22.50;99.90;;;;;;4994069;28;20063;-82
2022/08/14 07:07:57;;;;;;;0.00;0.00;;;22.00;99.90;;;;;;4973992;28;20063;-81
2022/08/14 07:10:24;;;;;;;0.00;0.00;;;;;;;;;;4976572;28;20035;-85
2022/08/14 07:12:52;;;;;;;0.00;0.00;;;22.20;99.90;;;;;;4976257;28;20035;-83
2022/08/14 07:15:30;;;;;;;0.00;0.00;;;22.30;99.90;;;;;;4990225;28;20035;-84
2022/08/14 07:18:01;;;;;;;0.00;0.00;;;22.50;99.90;;;;;;4978112;28;20067;-83
2022/08/14 07:20:29;;;;;;;0.00;0.00;;;23.20;99.90;;;;;;4977125;28;20039;-82
2022/08/14 07:22:59;;;;;;;0.00;0.00;;;22.70;99.90;;;;;;4975767;28;20046;-83
2022/08/14 07:25:34;;;;;;;0.00;0.00;;;23.90;99.90;;;;;;4979652;28;20027;-82
2022/08/14 07:28:07;;;;;;;;;;;22.80;99.90;;;;;;4993673;28;20024;-82
2022/08/14 07:30:39;;;;;;;0.00;0.00;;;23.00;99.90;;;;;;4973462;28;19920;-83
2022/08/14 07:33:18;;;;;;;0.00;0.00;;;23.20;99.90;;;;;;4984785;28;20049;-81
2022/08/14 07:35:50;;;;;;;0.00;0.00;;;23.10;99.90;;;;;;4988804;28;20031;-81
2022/08/14 07:38:28;;;;;;;0.00;0.00;;;23.90;99.90;;;;;;4994489;28;20042;-82
2022/08/14 07:41:04;;;;;;;0.00;0.00;;;23.30;99.90;;;;;;4979172;28;20038;-83
2022/08/14 07:43:42;;;;;;;0.00;0.00;;;23.40;99.90;;;;;;4973642;28;20026;-81
2022/08/14 07:46:13;;;;;;;0.00;0.00;;;23.90;99.90;;;;;;4988868;28;20070;-81
2022/08/14 07:48:47;;;;;;;0.00;0.00;;;23.50;99.70;;;;;;4977964;28;20040;-82
2022/08/14 07:51:14;;;;;;;0.00;0.00;;;23.60;99.30;;;;;;4978662;28;20042;-82
2022/08/14 07:53:43;;;;;;;0.00;0.00;;;23.80;99.10;;;;;;4995042;28;20071;-82
2022/08/14 07:56:12;;;;;;;0.00;0.00;;;23.90;98.60;;;;;;4974858;29;20031;-83
2022/08/14 07:58:59;;;;;;;0.00;0.00;;;23.90;98.70;;;;;;4989046;28;20095;-81
2022/08/14 08:01:29;;;;;;;0.00;0.00;;;24.00;98.70;;;;;;4979459;28;20047;-82
2022/08/14 08:04:00;;;;;;;0.00;0.00;;;24.50;99.10;;;;;;4996340;28;20038;-81
2022/08/14 08:06:29;;;;;;;0.00;0.00;;;24.10;98.40;;;;;;4977342;28;20055;-83
2022/08/14 08:09:01;;;;;;;0.00;0.00;;;24.20;98.30;;;;;;4994106;28;20035;-82
2022/08/14 08:11:32;;;;;;;0.00;0.00;;;24.30;97.80;;;;;;4976202;28;20047;-81
2022/08/14 08:14:05;;;;;;;0.00;0.00;;;24.40;97.60;;;;;;4976513;28;20050;-82
2022/08/14 08:16:37;;;;;;;0.00;0.00;;;24.50;97.60;;;;;;4972638;28;20080;-84
2022/08/14 08:19:07;;;;;;;0.00;0.00;;;;;;;;;;4984202;28;20058;-83
2022/08/14 08:21:40;;;;;;;0.00;0.00;;;24.40;97.20;;;;;;4993563;28;20034;-83
2022/08/14 08:24:11;;;;;;;0.00;0.00;;;24.50;97.90;;;;;;4989609;28;20047;-81
2022/08/14 08:26:44;;;;;;;0.00;0.00;;;26.30;97.30;;;;;;4975493;28;20039;-82
2022/08/14 08:29:18;;;;;;;0.00;0.00;;;25.70;97.10;;;;;;4974640;28;20051;-81
2022/08/14 08:31:51;;;;;;;0.00;0.00;;;24.80;96.40;;;;;;4973990;28;20035;-84
2022/08/14 08:34:19;;;;;;;0.00;0.00;;;25.70;96.20;;;;;;4973720;28;20035;-85
2022/08/14 08:36:50;;;;;;;0.00;0.00;;;24.90;95.80;;;;;;4978019;29;20050;-82
2022/08/14 08:39:19;;;;;;;0.00;0.00;;;25.00;96.00;;;;;;4973980;28;20048;-82
2022/08/14 08:41:49;;;;;;;0.00;0.00;;;25.10;95.80;;;;;;4972791;28;20044;-84
2022/08/14 08:44:20;;;;;;;0.00;0.00;;;25.10;95.80;;;;;;4972164;28;20039;-83
2022/08/14 08:47:04;;;;;;;0.00;0.00;;;25.20;95.30;;;;;;4985810;28;20045;-82
2022/08/14 08:49:38;;;;;;;0.00;0.00;;;25.20;95.60;;;;;;4971709;28;20023;-82
2022/08/14 08:52:14;;;;;;;0.00;0.00;;;;;;;;;;4988199;28;20061;-82
2022/08/14 08:54:56;;;;;;;0.00;0.00;;;25.30;95.10;;;;;;4971474;28;20047;-82
2022/08/14 08:57:24;;;;;;;0.00;0.00;;;;;;;;;;4977994;28;20031;-81
2022/08/14 08:59:51;;;;;;;0.00;0.00;;;25.40;95.00;;;;;;4978052;28;20066;-82
2022/08/14 09:02:24;;;;;;;0.00;0.00;;;25.40;95.10;;;;;;4990063;28;20043;-82
2022/08/14 09:05:02;;;;;;;0.00;0.00;;;25.60;94.60;;;;;;4990800;28;20071;-81
2022/08/14 09:07:28;;;;;;;0.00;0.00;;;25.60;94.70;;;;;;4977953;28;20062;-82
2022/08/14 09:09:58;;;;;;;0.00;0.00;;;25.90;95.10;;;;;;4974041;28;20039;-80
2022/08/14 09:12:27;;;;;;;0.00;0.00;;;26.00;94.50;;;;;;4978440;28;20051;-82
2022/08/14 09:15:00;;;;;;;0.00;0.00;;;27.40;95.40;;;;;;4991514;28;20031;-80
2022/08/14 09:17:27;;;;;;;0.00;0.00;;;26.00;95.00;;;;;;4976323;28;20133;-84
2022/08/14 09:19:54;;;;;;;0.00;0.00;;;26.10;93.70;;;;;;4977089;28;20043;-82
2022/08/14 09:22:22;;;;;;;0.00;0.00;;;26.20;93.90;;;;;;4975294;28;20032;-83
2022/08/14 09:25:05;;;;;;;0.00;0.00;;;26.30;93.70;;;;;;4987454;28;20039;-82
2022/08/14 09:27:33;;;;;;;0.00;0.00;;;26.20;93.10;;;;;;4979433;28;20051;-84
2022/08/14 09:30:01;;;;;;;0.00;0.00;;;26.30;93.70;;;;;;4969387;28;20071;-83
2022/08/14 09:33:02;;;;;;;0.00;0.00;;;26.40;93.60;;;;;;4969790;28;20053;-83
2022/08/14 09:35:48;;;;;;;0.00;0.00;;;26.40;93.80;;;;;;4975885;28;20050;-81
2022/08/14 09:38:31;;;;;;;0.00;0.00;;;26.60;92.70;;;;;;4986833;28;20058;-83
2022/08/14 09:41:27;;;;;;;0.00;0.00;;;26.60;92.90;;;;;;4976529;28;20062;-80
2022/08/14 09:44:27;;;;;;;0.00;0.00;;;27.10;93.30;;;;;;4970359;29;20091;-82
2022/08/14 09:46:58;;;;;;;0.00;0.00;;;26.60;93.10;;;;;;4974155;28;20023;-85
2022/08/14 09:49:33;;;;;;;0.00;0.00;;;26.60;92.70;;;;;;4969790;28;20027;-83
2022/08/14 09:52:09;;;;;;;0.00;0.00;;;26.50;93.00;;;;;;4972852;28;20047;-81
2022/08/14 09:54:55;;;;;;;;;;;26.50;92.90;;;;;;4975851;28;20050;-82
2022/08/14 09:57:27;;;;;;;0.00;0.00;;;26.70;93.10;;;;;;4970398;28;19927;-83
2022/08/14 09:59:55;;;;;;;0.00;0.00;;;27.30;93.40;;;;;;4986749;28;20039;-83
2022/08/14 10:02:23;;;;;;;0.00;0.00;;;28.00;93.10;;;;;;4988258;28;20039;-83
2022/08/14 10:05:02;;;;;;;0.00;0.00;;;26.70;92.70;;;;;;4973911;28;20055;-82
2022/08/14 10:07:30;;;;;;;0.00;0.00;;;27.00;92.70;;;;;;4981678;28;20031;-84
2022/08/14 10:09:59;;;;;;;0.00;0.00;;;27.00;92.90;;;;;;4970105;28;20130;-83
2022/08/14 10:12:47;;;;;;;0.00;0.00;;;27.10;92.10;;;;;;4973395;28;20043;-82
2022/08/14 10:15:23;;;;;;;0.00;0.00;;;27.10;91.90;;;;;;4987055;28;20047;-80
2022/08/14 10:18:04;;;;;;;0.00;0.00;;;27.10;91.70;;;;;;4966881;28;20031;-84
2022/08/14 10:20:32;;;;;;;0.00;0.00;;;28.30;91.40;;;;;;4973320;28;20047;-83
2022/08/14 10:23:12;;;;;;;0.00;0.00;;;27.20;91.80;;;;;;4970855;28;20057;-85
2022/08/14 10:25:46;;;;;;;0.00;0.00;;;27.20;91.60;;;;;;4984900;28;20058;-81
2022/08/14 10:28:17;;;;;;;0.00;0.00;;;27.30;91.20;;;;;;4972550;29;20039;-84
2022/08/14 10:31:16;;;;;;;0.00;0.00;;;28.80;91.70;;;;;;4966792;28;20062;-82
2022/08/14 10:34:01;;;;;;;0.00;0.00;;;27.60;91.30;;;;;;4982491;28;20047;-81
2022/08/14 10:36:33;;;;;;;0.00;0.00;;;27.80;91.30;;;;;;4968564;28;20034;-81
2022/08/14 10:39:14;;;;;;;0.00;0.00;;;28.00;91.10;;;;;;4969704;28;20075;-82
2022/08/14 10:41:43;;;;;;;0.00;0.00;;;27.90;91.30;;;;;;4987685;28;20027;-85
2022/08/14 10:44:20;;;;;;;0.00;0.00;;;27.90;90.30;;;;;;4973174;28;20051;-83
2022/08/14 10:46:53;;;;;;;0.00;0.00;;;28.00;90.50;;;;;;4988185;28;20063;-83
2022/08/14 10:49:49;;;;;;;0.00;0.00;;;28.00;90.80;;;;;;4986842;28;20142;-82
2022/08/14 10:52:23;;;;;;;0.00;0.00;;;27.90;89.80;;;;;;4973161;28;20075;-82
2022/08/14 10:54:51;;;;;;;0.00;0.00;;;28.60;90.80;;;;;;4969969;28;20047;-84
2022/08/14 10:57:23;;;;;;;0.00;0.00;;;28.00;90.00;;;;;;4973713;28;20031;-84
2022/08/14 10:59:54;;;;;;;0.00;0.00;;;28.20;90.60;;;;;;4968102;28;20055;-85
2022/08/14 11:02:28;;;;;;;0.00;0.00;;;28.50;88.60;;;;;;4970541;28;20046;-82
2022/08/14 11:05:17;;;;;;;0.00;0.00;;;28.40;89.10;;;;;;4970415;28;20063;-81
2022/08/14 11:07:54;;;;;;;0.00;0.00;;;30.30;90.10;;;;;;4969427;28;20055;-86
2022/08/14 11:10:26;;;;;;;0.00;0.00;;;28.60;87.60;;;;;;4969527;28;20055;-84
2022/08/14 11:12:55;;;;;;;0.00;0.00;;;28.80;88.00;;;;;;4962815;28;20720;-83
2022/08/14 11:15:26;;;;;;;;;;;28.70;88.30;;;;;;4970146;28;20063;-82
2022/08/14 11:17:55;;;;;;;0.00;0.00;;;29.70;87.80;;;;;;4984636;28;19929;-85
2022/08/14 11:20:29;;;;;;;0.00;0.00;;;28.80;87.30;;;;;;4964821;28;20047;-84
2022/08/14 11:22:58;;;;;;;0.00;0.00;;;28.80;87.90;;;;;;4971557;29;20039;-82
2022/08/14 11:25:28;;;;;;;0.00;0.00;;;29.60;88.70;;;;;;4973842;28;20044;-82
2022/08/14 11:28:12;;;;;;;0.00;0.00;;;30.20;89.40;;;;;;4968102;28;20063;-84
2022/08/14 11:30:47;;;;;;;0.00;0.00;;;31.60;87.60;;;;;;4982023;28;20051;-86
2022/08/14 11:33:28;;;;;;;0.00;0.00;;;29.10;86.40;;;;;;4976520;28;20079;-84
2022/08/14 11:35:59;;;;;;;0.00;0.00;;;29.10;86.80;;;;;;4986393;28;20043;-84
2022/08/14 11:38:28;;;;;;;0.00;0.00;;;;;;;;;;4972439;28;20047;-85
2022/08/14 11:40:57;;;;;;;0.00;0.00;;;29.10;85.30;;;;;;4980567;28;20047;-83
2022/08/14 11:43:26;;;;;;;0.00;0.00;;;29.00;85.70;;;;;;4975878;29;20047;-86
2022/08/14 11:45:59;;;;;;;0.00;0.00;;;29.20;85.00;;;;;;4977193;28;20420;-83
2022/08/14 11:48:32;;;;;;;0.00;0.00;;;;;;;;;;4991542;28;20055;-86
2022/08/14 11:51:22;;;;;;;0.00;0.00;;;29.50;84.10;;;;;;4975545;28;20123;-84
2022/08/14 11:53:52;;;;;;;0.00;0.00;;;29.50;83.80;;;;;;4983486;28;20054;-84
2022/08/14 11:56:19;;;;;;;0.00;0.00;;;29.50;84.30;;;;;;4990895;28;20051;-85
2022/08/14 11:58:52;;;;;;;0.00;0.00;;;30.90;84.90;;;;;;4976303;28;20063;-84
2022/08/14 12:01:29;;;;;;;0.00;0.00;;;29.80;84.50;;;;;;4974099;28;20074;-84
2022/08/14 12:04:08;;;;;;;0.00;0.00;;;30.00;83.50;;;;;;4990825;28;20024;-87
2022/08/14 12:06:55;;;;;;;0.00;0.00;;;;;;;;;;4973127;29;20039;-85
2022/08/14 12:09:29;;;;;;;0.00;0.00;;;30.40;82.30;;;;;;4975766;28;20055;-82
2022/08/14 12:11:57;;;;;;;0.00;0.00;;;30.50;81.60;;;;;;4980876;28;20067;-86
2022/08/14 12:14:24;;;;;;;0.00;0.00;;;30.50;82.90;;;;;;4990185;28;20047;-85
2022/08/14 12:17:06;;;;;;;0.00;0.00;;;30.50;82.40;;;;;;4974800;29;20507;-85
2022/08/14 12:19:44;;;;;;;0.00;0.00;;;30.50;81.00;;;;;;4964840;28;20546;-84
2022/08/14 12:22:18;;;;;;;0.00;0.00;;;30.50;82.30;;;;;;4986520;28;20508;-86
2022/08/14 12:24:56;;;;;;;0.00;0.00;;;30.40;81.30;;;;;;4974430;28;20094;-85
2022/08/14 12:27:37;;;;;;;0.00;0.00;;;30.30;81.00;;;;;;4989882;28;20061;-84
2022/08/14 12:30:13;;;;;;;0.00;0.00;;;30.30;81.40;;;;;;4970369;29;20057;-85
2022/08/14 12:32:48;;;;;;;0.00;0.00;;;30.20;82.20;;;;;;4985810;28;20058;-84
2022/08/14 12:35:16;;;;;;;0.00;0.00;;;29.60;82.20;;;;;;4969348;29;20058;-86
2022/08/14 12:37:48;;;;;;;0.00;0.00;;;32.60;84.80;;;;;;4971435;28;20039;-85
2022/08/14 12:40:17;;;;;;;0.00;0.00;;;30.30;81.30;;;;;;4988036;28;20075;-85
2022/08/14 12:42:46;;;;;;;0.00;0.00;;;30.40;80.40;;;;;;4972132;28;20058;-85
2022/08/14 12:45:30;;;;;;;0.00;0.00;;;31.00;81.30;;;;;;4986904;28;20059;-86
2022/08/14 12:48:00;;;;;;;0.00;0.00;;;30.50;81.80;;;;;;4971653;28;20058;-85
2022/08/14 12:50:51;;;;;;;0.00;0.00;;;31.80;80.70;;;;;;4984503;28;20122;-83
2022/08/14 12:53:19;;;;;;;0.00;0.00;;;32.40;80.60;;;;;;4988516;28;20036;-85
2022/08/14 12:55:58;;;;;;;0.00;0.00;;;31.00;79.90;;;;;;4987288;28;20058;-87
2022/08/14 12:58:50;;;;;;;0.00;0.00;;;30.90;79.90;;;;;;4985434;28;20051;-85
2022/08/14 13:01:20;;;;;;;0.00;0.00;;;30.90;79.00;;;;;;4972898;28;20058;-86
2022/08/14 13:03:49;;;;;;;0.00;0.00;;;30.80;78.40;;;;;;4985566;28;20054;-86
2022/08/14 13:06:19;;;;;;;0.00;0.00;;;31.00;79.40;;;;;;4972176;28;20079;-85
2022/08/14 13:08:46;;;;;;;0.00;0.00;;;30.80;79.70;;;;;;4972422;29;20054;-86
2022/08/14 13:11:20;;;;;;;0.00;0.00;;;30.90;80.40;;;;;;4988749;28;20287;-86
2022/08/14 13:13:57;;;;;;;0.00;0.00;;;30.90;79.60;;;;;;4987111;28;20055;-85
2022/08/14 13:16:28;;;;;;;0.00;0.00;;;31.00;79.40;;;;;;4974156;28;20046;-85
2022/08/14 13:19:07;;;;;;;0.00;0.00;;;31.00;79.30;;;;;;4973037;29;20055;-87
2022/08/14 13:21:38;;;;;;;0.00;0.00;;;31.10;80.40;;;;;;4984709;28;20118;-86
2022/08/14 13:24:25;;;;;;;0.00;0.00;;;31.00;78.10;;;;;;4963959;29;20123;-84
2022/08/14 13:26:57;;;;;;;0.00;0.00;;;31.00;78.00;;;;;;4976105;28;20066;-86
2022/08/14 13:29:27;;;;;;;0.00;0.00;;;31.20;79.10;;;;;;4988336;28;20066;-86
2022/08/14 13:31:57;;;;;;;0.00;0.00;;;31.10;78.20;;;;;;4973178;28;20047;-85
2022/08/14 13:34:28;;;;;;;0.00;0.00;;;31.30;78.60;;;;;;4970325;28;20058;-85
2022/08/14 13:36:57;;;;;;;0.00;0.00;;;31.10;78.00;;;;;;4968166;28;20043;-85
2022/08/14 13:39:31;;;;;;;0.00;0.00;;;31.10;77.50;;;;;;4969610;28;20062;-84
2022/08/14 13:42:06;;;;;;;0.00;0.00;;;31.00;78.80;;;;;;4963218;29;20047;-83
2022/08/14 13:44:34;;;;;;;0.00;0.00;;;30.90;77.80;;;;;;4969906;29;20043;-86